Terminal Aerodrome Forecast
Issued by NWS

Home | Current Version | Previous Version | Text Only | Print | Product List | Glossary On
Versions: 1 2 3 4 5 6 7 8 9 10 11 12 13
000
FTUS43 KDTX 211723
TAFMBS
TAF
KMBS 211723Z 2118/2218 VRB04KT P6SM SCT150 BKN250
     FM220800 22006KT P6SM BKN100 OVC200 PROB30 2210/2214 P6SM -SHRA
      BKN080 OVC120
     FM221400 12006KT P6SM SCT035 BKN050=

USA.gov is the U.S. government's official web portal to all federal, state and local government web resources and services.